Sturgis, MI

5:11 AM EDT on April 30, 2017 (GMT -0400)
Kirsch Municipal

Weather History for KIRS - October, 2011

Change the Weather History Date:

Friday, October 14, 2011

  Actual Average (KHAI) Record (KHAI)
Temperature  
Mean Temperature 54 °F -  
Max Temperature 57 °F 63 °F 85 °F (1975)
Min Temperature 51 °F 40 °F 25 °F (1993)
Degree Days  
Heating Degree Days 11    
Growing Degree Days 4 (Base 50)    
Moisture  
Dew Point 47 °F    
Average Humidity 77    
Maximum Humidity 94    
Minimum Humidity 48    
Precipitation  
Precipitation 0.00 in - - ()
Sea Level Pressure  
Sea Level Pressure 29.48 in    
Wind  
Wind Speed 12 mph (West)    
Max Wind Speed 23 mph    
Max Gust Speed 32 mph    
Visibility 10 miles    
Events Rain    
Averages and records for this station are not official NWS values.
T = Trace of Precipitation, MM = Missing Value Source: NWS Daily Summary

Daily Weather History Graph

Daily Weather History Graph

Search for Another Location

Airport or City:

Trip Planner

Search our weather history database for the weather conditions in past years. The results will help you decide how hot, cold, wet, or windy it might be!

Date:

Astronomy

Oct. 14, 2011 Rise Set
Actual Time 7:52 AM EDT 7:02 PM EDT
Civil Twilight 7:24 AM EDT 7:30 PM EDT
Nautical Twilight 6:52 AM EDT 8:02 PM EDT
Astronomical Twilight 6:20 AM EDT 8:34 PM EDT
Moon 8:12 PM EDT (10/14) 10:23 AM EDT (10/14)
Length of Visible Light 12h 05m
Length of Day
11h 09m
Waning Gibbous, 94% of the Moon is Illuminated
Oct 14
Waning Gibbous
Oct 19
Last Quarter
Oct 26
New
Nov 2
First Quarter
Nov 10
Full

Hourly Weather History & Observations

Time (EDT) Temp. Windchill Dew Point Humidity Pressure Visibility Wind Dir Wind Speed Gust Speed Precip Events Conditions
12:15 AM 55.4 °F - 53.6 °F 94% 29.43 in 10.0 mi WNW 9.2 mph - N/A Rain Rain
12:34 AM 55.4 °F - 53.6 °F 94% 29.43 in 10.0 mi NW 8.1 mph - N/A Rain Light Rain
12:55 AM 55.4 °F - 53.6 °F 94% 29.43 in 10.0 mi West 6.9 mph - N/A Rain Light Rain
1:14 AM 55.4 °F - 53.6 °F 94% 29.43 in 10.0 mi NW 13.8 mph 17.3 mph N/A   Drizzle
1:35 AM 55.4 °F - 53.6 °F 94% 29.43 in 10.0 mi WNW 8.1 mph - N/A   Drizzle
1:55 AM 55.4 °F - 53.6 °F 94% 29.44 in 10.0 mi WNW 6.9 mph - N/A   Overcast
2:14 AM 55.4 °F - 53.6 °F 94% 29.43 in 10.0 mi West 5.8 mph - N/A   Overcast
2:35 AM 55.4 °F - 53.6 °F 94% 29.44 in 10.0 mi WNW 10.4 mph 18.4 mph N/A   Overcast
2:54 AM 55.4 °F - 51.8 °F 88% 29.44 in 10.0 mi West 12.7 mph 18.4 mph N/A   Overcast
3:15 AM 53.6 °F - 51.8 °F 94% 29.44 in 10.0 mi West 13.8 mph 19.6 mph N/A   Overcast
3:35 AM 53.6 °F - 51.8 °F 94% 29.44 in 10.0 mi West 10.4 mph - N/A   Overcast
3:54 AM 53.6 °F - 51.8 °F 94% 29.44 in 10.0 mi West 11.5 mph - N/A   Overcast
4:15 AM 53.6 °F - 51.8 °F 94% 29.43 in 10.0 mi West 10.4 mph - N/A   Overcast
4:34 AM 53.6 °F - 51.8 °F 94% 29.43 in 10.0 mi West 11.5 mph 18.4 mph N/A   Overcast
4:54 AM 53.6 °F - 50.0 °F 88% 29.43 in 10.0 mi West 11.5 mph 18.4 mph N/A   Overcast
5:15 AM 53.6 °F - 50.0 °F 88% 29.44 in 10.0 mi West 12.7 mph - N/A   Overcast
5:34 AM 53.6 °F - 50.0 °F 88% 29.44 in 10.0 mi West 9.2 mph 16.1 mph N/A   Overcast
5:54 AM 53.6 °F - 50.0 °F 88% 29.44 in 10.0 mi West 9.2 mph 17.3 mph N/A   Overcast
6:15 AM 53.6 °F - 50.0 °F 88% 29.45 in 10.0 mi West 12.7 mph 17.3 mph N/A   Overcast
6:34 AM 53.6 °F - 50.0 °F 88% 29.45 in 10.0 mi West 12.7 mph 17.3 mph N/A   Overcast
6:55 AM 53.6 °F - 50.0 °F 88% 29.45 in 10.0 mi West 11.5 mph 16.1 mph N/A   Overcast
7:15 AM 53.6 °F - 50.0 °F 88% 29.46 in 10.0 mi West 10.4 mph - N/A   Overcast
7:34 AM 53.6 °F - 48.2 °F 82% 29.46 in 10.0 mi West 11.5 mph 18.4 mph N/A   Overcast
7:55 AM 53.6 °F - 48.2 °F 82% 29.46 in 10.0 mi West 10.4 mph - N/A   Overcast
8:15 AM 53.6 °F - 48.2 °F 82% 29.46 in 10.0 mi West 16.1 mph 25.3 mph N/A   Overcast
8:34 AM 53.6 °F - 48.2 °F 82% 29.47 in 10.0 mi West 12.7 mph 19.6 mph N/A   Overcast
9:14 AM 51.8 °F - 46.4 °F 82% 29.48 in 10.0 mi West 15.0 mph 23.0 mph N/A   Overcast
9:34 AM 51.8 °F - 46.4 °F 82% 29.48 in 10.0 mi West 13.8 mph 23.0 mph N/A   Overcast
9:55 AM 53.6 °F - 44.6 °F 72% 29.49 in 10.0 mi West 13.8 mph 21.9 mph N/A   Overcast
10:14 AM 53.6 °F - 44.6 °F 72% 29.49 in 10.0 mi West 17.3 mph 26.5 mph N/A   Overcast
10:35 AM 53.6 °F - 44.6 °F 72% 29.50 in 10.0 mi West 17.3 mph 27.6 mph N/A   Overcast
10:55 AM 53.6 °F - 44.6 °F 72% 29.50 in 10.0 mi West 13.8 mph 28.8 mph N/A   Overcast
11:14 AM 53.6 °F - 42.8 °F 67% 29.50 in 10.0 mi West 16.1 mph 25.3 mph N/A   Overcast
11:35 AM 53.6 °F - 42.8 °F 67% 29.51 in 10.0 mi West 23.0 mph 28.8 mph N/A   Mostly Cloudy
11:55 AM 55.4 °F - 42.8 °F 63% 29.52 in 10.0 mi West 18.4 mph 32.2 mph N/A   Scattered Clouds
12:14 PM 55.4 °F - 41.0 °F 58% 29.52 in 10.0 mi West 18.4 mph 27.6 mph N/A   Scattered Clouds
12:35 PM 55.4 °F - 42.8 °F 63% 29.52 in 10.0 mi West 20.7 mph 27.6 mph N/A   Mostly Cloudy
12:54 PM 55.4 °F - 41.0 °F 58% 29.53 in 10.0 mi West 17.3 mph 24.2 mph N/A   Mostly Cloudy
1:14 PM 53.6 °F - 41.0 °F 62% 29.53 in 10.0 mi WNW 17.3 mph 25.3 mph N/A   Mostly Cloudy
1:35 PM 53.6 °F - 41.0 °F 62% 29.53 in 10.0 mi WNW 16.1 mph 26.5 mph N/A   Mostly Cloudy
1:55 PM 53.6 °F - 41.0 °F 62% 29.54 in 10.0 mi WNW 15.0 mph 26.5 mph N/A   Mostly Cloudy
2:14 PM 55.4 °F - 42.8 °F 63% 29.54 in 10.0 mi West 16.1 mph 26.5 mph N/A   Overcast
2:35 PM 55.4 °F - 41.0 °F 58% 29.54 in 10.0 mi West 16.1 mph 26.5 mph N/A   Overcast
2:54 PM 55.4 °F - 42.8 °F 63% 29.54 in 10.0 mi West 16.1 mph - N/A   Mostly Cloudy
3:15 PM 55.4 °F - 41.0 °F 58% 29.55 in 10.0 mi WNW 12.7 mph 21.9 mph N/A   Overcast
3:35 PM 55.4 °F - 37.4 °F 51% 29.55 in 10.0 mi WNW 15.0 mph 29.9 mph N/A   Overcast
3:54 PM 57.2 °F - 39.2 °F 51% 29.55 in 10.0 mi WNW 15.0 mph 27.6 mph N/A   Mostly Cloudy
4:35 PM 57.2 °F - 37.4 °F 48% 29.55 in 10.0 mi West 20.7 mph 28.8 mph N/A   Mostly Cloudy
4:54 PM 57.2 °F - 39.2 °F 51% 29.56 in 10.0 mi West 15.0 mph 25.3 mph N/A   Mostly Cloudy
5:15 PM 55.4 °F - 39.2 °F 54% 29.56 in 10.0 mi WNW 15.0 mph 24.2 mph N/A   Mostly Cloudy
5:34 PM 57.2 °F - 39.2 °F 51% 29.56 in 10.0 mi West 15.0 mph 25.3 mph N/A   Mostly Cloudy
5:54 PM 55.4 °F - 39.2 °F 54% 29.57 in 10.0 mi West 16.1 mph 23.0 mph N/A   Mostly Cloudy
6:15 PM 57.2 °F - 39.2 °F 51% 29.56 in 10.0 mi West 18.4 mph 26.5 mph N/A   Mostly Cloudy
6:34 PM 55.4 °F - 39.2 °F 54% 29.56 in 10.0 mi West 13.8 mph 19.6 mph N/A   Scattered Clouds
6:54 PM 55.4 °F - 41.0 °F 58% 29.56 in 10.0 mi West 10.4 mph 20.7 mph N/A   Scattered Clouds
7:15 PM 55.4 °F - 41.0 °F 58% 29.57 in 10.0 mi West 15.0 mph 20.7 mph N/A   Scattered Clouds
7:34 PM 51.8 °F - 42.8 °F 71% 29.61 in 7.0 mi NW 25.3 mph 35.7 mph N/A   Overcast
7:55 PM 48.2 °F - 44.6 °F 87% 29.59 in 5.0 mi West 8.1 mph 18.4 mph N/A Rain Light Rain
8:14 PM 48.2 °F - 44.6 °F 87% 29.59 in 7.0 mi West 11.5 mph 25.3 mph N/A Rain Light Rain
8:35 PM 48.2 °F - 44.6 °F 87% 29.59 in 10.0 mi North 8.1 mph - N/A   Mostly Cloudy
8:54 PM 48.2 °F - 44.6 °F 87% 29.60 in 10.0 mi NW 5.8 mph - N/A   Overcast
9:14 PM 48.2 °F - 44.6 °F 87% 29.59 in 10.0 mi West 5.8 mph - N/A Rain Light Rain
9:35 PM 48.2 °F - 44.6 °F 87% 29.60 in 10.0 mi NW 8.1 mph - N/A Rain Light Rain
9:54 PM 48.2 °F - 44.6 °F 87% 29.61 in 5.0 mi NW 9.2 mph 18.4 mph N/A Rain Heavy Rain
10:15 PM 46.4 °F 44.3 °F 44.6 °F 93% 29.61 in 10.0 mi West 4.6 mph - N/A   Scattered Clouds
10:35 PM 46.4 °F 43.5 °F 44.6 °F 93% 29.61 in 10.0 mi West 5.8 mph - N/A   Clear
10:54 PM 46.4 °F 43.5 °F 44.6 °F 93% 29.61 in 10.0 mi WSW 5.8 mph - N/A   Scattered Clouds
11:15 PM 44.6 °F 42.2 °F 42.8 °F 93% 29.60 in 10.0 mi WSW 4.6 mph - N/A   Scattered Clouds
11:34 PM 44.6 °F 42.2 °F 42.8 °F 93% 29.60 in 10.0 mi WSW 4.6 mph - N/A   Scattered Clouds
11:54 PM 46.4 °F 43.5 °F 42.8 °F 87% 29.60 in 10.0 mi WSW 5.8 mph - N/A   Mostly Cloudy